»·PEaware :: N507DM KMRY-KMOD

N507DM :: KMRY-KMOD

FLIGHT INFORMATION

Flight Status: Arrived
Operator: Privately registered:
United States
More flights under this callsign
Pilot: Patrick G. (19174)
Aircraft: CESSNA 172 SKYHAWK
(C172)
More flights by this aircraft type
Origin: KMRY Monterey Peninsula
United States
Destination: KMOD Modesto City-Co-Sham
United States
More flights between these airports :: More routes between these airports
Route: +MRY4 SNS V111 PATYY
File this flight plan on PilotEdge
Remarks: Request KMRY RWY 28R;
Altitude:
(Current/Filed)
6,000ft
Speed:
(Current/Filed)
105kts
Departed: 17-May-18 12:31 PM
Arrived: 17-May-18 01:28 PM
Distance/Time
Traveled:
76nm/0:57
Distance/Time
To Go:
Arrived

Flight Plot

Page will automatically refresh every two minutes.

Flight plan parsing failed; only flown route is shown


Map Options




Map Legend


Flown Route
Filed Route
Departure Airport
Arrival Airport
Navaid (VOR, NDB)
Fix

Horizontal Profiles

Position Reports

Time Latitude Longitude Heading Altitude Ground
Speed
17-May-18 11:53 36.585605 -121.846399 293 202ft 0kts
17-May-18 11:54 36.585605 -121.846399 293 202ft 0kts
17-May-18 11:55 36.585605 -121.846399 293 202ft 0kts
17-May-18 11:56 36.585605 -121.846399 293 202ft 0kts
17-May-18 11:57 36.585605 -121.846399 293 202ft 0kts
17-May-18 11:58 36.585605 -121.846399 293 202ft 0kts
17-May-18 11:59 36.585605 -121.846399 293 202ft 0kts
17-May-18 12:00 36.585605 -121.846399 293 202ft 0kts
17-May-18 12:01 36.585605 -121.846399 293 202ft 0kts
17-May-18 12:07 36.585605 -121.846399 293 202ft 0kts
17-May-18 12:08 36.585605 -121.846399 293 202ft 0kts
17-May-18 12:09 36.585605 -121.846399 293 202ft 0kts
17-May-18 12:10 36.585605 -121.846399 293 202ft 0kts
17-May-18 12:11 36.585605 -121.846399 293 202ft 0kts
17-May-18 12:12 36.585605 -121.846399 293 202ft 0kts
17-May-18 12:13 36.585605 -121.846399 293 202ft 0kts
17-May-18 12:14 36.585605 -121.846399 293 202ft 0kts
17-May-18 12:15 36.585605 -121.846399 293 202ft 0kts
17-May-18 12:16 36.585605 -121.846400 292 202ft 0kts
17-May-18 12:17 36.585605 -121.846400 292 202ft 0kts
17-May-18 12:18 36.585605 -121.846400 292 202ft 0kts
17-May-18 12:19 36.585605 -121.846400 292 202ft 0kts
17-May-18 12:20 36.585605 -121.846400 292 202ft 0kts
17-May-18 12:21 36.585605 -121.846400 292 202ft 0kts
17-May-18 12:22 36.585605 -121.846400 292 202ft 0kts
17-May-18 12:23 36.585605 -121.846400 292 202ft 0kts
17-May-18 12:24 36.585723 -121.846493 292 201ft 0kts
17-May-18 12:25 36.586330 -121.845282 110 200ft 12kts
17-May-18 12:26 36.584603 -121.840257 111 241ft 26kts
17-May-18 12:27 36.582906 -121.835166 101 237ft 0kts
17-May-18 12:28 36.582906 -121.835166 101 237ft 0kts
17-May-18 12:29 36.582906 -121.835166 101 237ft 0kts
17-May-18 12:30 36.583668 -121.834548 293 233ft 16kts
17-May-18 12:31 36.591277 -121.852844 290 947ft 67kts
17-May-18 12:32 36.600980 -121.871060 339 1854ft 69kts
17-May-18 12:33 36.619545 -121.877106 340 2699ft 70kts
17-May-18 12:34 36.635564 -121.869434 75 3499ft 83kts
17-May-18 12:35 36.638383 -121.840606 78 4267ft 84kts
17-May-18 12:36 36.641172 -121.811566 78 4994ft 85kts
17-May-18 12:37 36.644026 -121.782153 78 5686ft 86kts
17-May-18 12:38 36.646929 -121.752589 78 6369ft 86kts
17-May-18 12:39 36.651282 -121.722905 74 6993ft 92kts
17-May-18 12:40 36.657354 -121.686058 75 7009ft 115kts
17-May-18 12:41 36.662323 -121.647380 80 7009ft 115kts
17-May-18 12:42 36.664282 -121.607340 90 7009ft 116kts
17-May-18 12:43 36.685643 -121.586720 12 7009ft 107kts
17-May-18 12:44 36.713638 -121.573060 18 7009ft 108kts
17-May-18 12:45 36.740400 -121.555423 25 7009ft 109kts
17-May-18 12:46 36.767111 -121.537000 24 7009ft 109kts
17-May-18 12:47 36.793783 -121.518981 23 7009ft 109kts
17-May-18 12:48 36.820706 -121.501052 23 7009ft 109kts
17-May-18 12:49 36.847616 -121.483221 23 7009ft 109kts
17-May-18 12:50 36.874424 -121.465506 23 7009ft 109kts
17-May-18 12:51 36.901386 -121.447698 23 7009ft 109kts
17-May-18 12:52 36.928241 -121.429952 23 7009ft 109kts
17-May-18 12:53 36.955203 -121.412129 23 7009ft 109kts
17-May-18 12:54 36.982087 -121.394349 23 7009ft 109kts
17-May-18 12:55 37.006442 -121.371672 26 7009ft 110kts
17-May-18 12:56 37.033224 -121.353508 23 7009ft 109kts
17-May-18 12:57 37.060039 -121.335482 24 7008ft 109kts
17-May-18 12:58 37.086836 -121.317455 24 7008ft 109kts
17-May-18 12:59 37.113578 -121.299457 24 7009ft 109kts
17-May-18 13:00 37.140347 -121.281439 24 7009ft 109kts
17-May-18 13:01 37.167204 -121.263352 24 7009ft 109kts
17-May-18 13:02 37.194003 -121.245313 24 7009ft 109kts
17-May-18 13:03 37.220859 -121.227227 24 7009ft 109kts
17-May-18 13:04 37.247747 -121.209120 24 7009ft 109kts
17-May-18 13:05 37.275054 -121.192665 21 7009ft 109kts
17-May-18 13:06 37.301872 -121.176549 21 7009ft 109kts
17-May-18 13:07 37.329283 -121.160081 21 7009ft 109kts
17-May-18 13:08 37.356675 -121.143611 21 7009ft 109kts
17-May-18 13:09 37.378329 -121.119783 81 6966ft 119kts
17-May-18 13:10 37.380936 -121.079038 83 6463ft 113kts
17-May-18 13:11 37.383273 -121.040158 83 5963ft 111kts
17-May-18 13:12 37.385581 -121.001438 83 5464ft 111kts
17-May-18 13:13 37.387889 -120.962512 83 4931ft 113kts
17-May-18 13:14 37.390344 -120.921842 83 4238ft 119kts
17-May-18 13:15 37.405621 -120.892465 32 3528ft 99kts
17-May-18 13:16 37.427035 -120.871864 32 2827ft 96kts
17-May-18 13:17 37.448089 -120.851501 32 2128ft 96kts
17-May-18 13:18 37.469309 -120.831033 32 2009ft 98kts
17-May-18 13:19 37.491462 -120.809759 32 2009ft 101kts
17-May-18 13:20 37.513827 -120.788456 26 2008ft 99kts
17-May-18 13:21 37.537898 -120.796400 332 1971ft 95kts
17-May-18 13:22 37.554533 -120.820962 304 1808ft 85kts
17-May-18 13:23 37.567529 -120.844999 303 1791ft 85kts
17-May-18 13:24 37.581580 -120.870894 304 1483ft 92kts
17-May-18 13:25 37.596025 -120.897607 304 984ft 92kts
17-May-18 13:26 37.610060 -120.922999 307 381ft 84kts
17-May-18 13:27 37.619433 -120.940987 302 250ft 55kts
17-May-18 13:28 37.624574 -120.949393 34 87ft 3kts

Navigation Log

Ident Type
Flight plan parsing failed, navigation log unavailable